sensor_id;sensor_type;location;lat;lon;timestamp;temperature;humidity
76577;DHT22;65441;44.748;37.600;2023-02-15T00:00:02;3.00;85.94
76577;DHT22;65441;44.748;37.600;2023-02-15T00:02:37;3.15;86.05
76577;DHT22;65441;44.748;37.600;2023-02-15T00:05:13;3.19;85.45
76577;DHT22;65441;44.748;37.600;2023-02-15T00:07:47;3.23;85.54
76577;DHT22;65441;44.748;37.600;2023-02-15T00:10:22;3.28;84.97
76577;DHT22;65441;44.748;37.600;2023-02-15T00:12:56;3.33;84.32
76577;DHT22;65441;44.748;37.600;2023-02-15T00:15:37;3.35;84.39
76577;DHT22;65441;44.748;37.600;2023-02-15T00:18:11;3.38;84.32
76577;DHT22;65441;44.748;37.600;2023-02-15T00:20:46;3.42;84.47
76577;DHT22;65441;44.748;37.600;2023-02-15T00:23:19;3.31;84.28
76577;DHT22;65441;44.748;37.600;2023-02-15T00:25:52;3.13;84.87
76577;DHT22;65441;44.748;37.600;2023-02-15T00:28:26;3.12;84.82
76577;DHT22;65441;44.748;37.600;2023-02-15T00:31:05;3.08;85.74
76577;DHT22;65441;44.748;37.600;2023-02-15T00:33:40;2.91;85.78
76577;DHT22;65441;44.748;37.600;2023-02-15T00:36:12;2.86;86.02
76577;DHT22;65441;44.748;37.600;2023-02-15T00:38:43;2.94;86.44
76577;DHT22;65441;44.748;37.600;2023-02-15T00:41:19;2.90;86.24
76577;DHT22;65441;44.748;37.600;2023-02-15T00:43:54;2.75;86.79
76577;DHT22;65441;44.748;37.600;2023-02-15T00:46:29;2.72;86.67
76577;DHT22;65441;44.748;37.600;2023-02-15T00:49:00;2.73;86.64
76577;DHT22;65441;44.748;37.600;2023-02-15T00:51:36;2.72;86.97
76577;DHT22;65441;44.748;37.600;2023-02-15T00:54:11;2.69;86.64
76577;DHT22;65441;44.748;37.600;2023-02-15T00:56:46;2.75;86.63
76577;DHT22;65441;44.748;37.600;2023-02-15T00:59:21;2.79;86.05
76577;DHT22;65441;44.748;37.600;2023-02-15T01:01:58;2.79;86.54
76577;DHT22;65441;44.748;37.600;2023-02-15T01:04:32;2.88;86.02
76577;DHT22;65441;44.748;37.600;2023-02-15T01:07:07;2.82;86.19
76577;DHT22;65441;44.748;37.600;2023-02-15T01:09:41;2.70;86.78
76577;DHT22;65441;44.748;37.600;2023-02-15T01:12:12;2.56;87.26
76577;DHT22;65441;44.748;37.600;2023-02-15T01:14:47;2.65;87.32
76577;DHT22;65441;44.748;37.600;2023-02-15T01:17:22;2.60;87.07
76577;DHT22;65441;44.748;37.600;2023-02-15T01:20:06;2.55;87.28
76577;DHT22;65441;44.748;37.600;2023-02-15T01:22:41;2.54;87.47
76577;DHT22;65441;44.748;37.600;2023-02-15T01:25:22;2.53;87.36
76577;DHT22;65441;44.748;37.600;2023-02-15T01:27:58;2.64;87.35
76577;DHT22;65441;44.748;37.600;2023-02-15T01:30:31;2.67;86.89
76577;DHT22;65441;44.748;37.600;2023-02-15T01:33:11;2.51;87.55
76577;DHT22;65441;44.748;37.600;2023-02-15T01:35:45;2.50;87.77
76577;DHT22;65441;44.748;37.600;2023-02-15T01:38:17;2.52;87.60
76577;DHT22;65441;44.748;37.600;2023-02-15T01:40:53;2.52;87.89
76577;DHT22;65441;44.748;37.600;2023-02-15T01:43:48;2.59;87.36
76577;DHT22;65441;44.748;37.600;2023-02-15T01:46:33;2.61;87.42
76577;DHT22;65441;44.748;37.600;2023-02-15T01:49:14;2.55;87.48
76577;DHT22;65441;44.748;37.600;2023-02-15T01:51:50;2.66;87.00
76577;DHT22;65441;44.748;37.600;2023-02-15T01:54:29;2.49;87.38
76577;DHT22;65441;44.748;37.600;2023-02-15T01:57:05;2.50;87.66
76577;DHT22;65441;44.748;37.600;2023-02-15T01:59:44;2.57;87.60
76577;DHT22;65441;44.748;37.600;2023-02-15T02:02:21;2.50;87.41
76577;DHT22;65441;44.748;37.600;2023-02-15T02:05:01;2.39;87.83
76577;DHT22;65441;44.748;37.600;2023-02-15T02:07:41;2.42;88.02
76577;DHT22;65441;44.748;37.600;2023-02-15T02:10:17;2.50;87.50
76577;DHT22;65441;44.748;37.600;2023-02-15T02:13:01;2.52;87.15
76577;DHT22;65441;44.748;37.600;2023-02-15T02:15:41;2.56;87.62
76577;DHT22;65441;44.748;37.600;2023-02-15T02:18:27;2.61;87.33
76577;DHT22;65441;44.748;37.600;2023-02-15T02:21:40;2.68;86.90
76577;DHT22;65441;44.748;37.600;2023-02-15T02:27:32;2.72;87.15
76577;DHT22;65441;44.748;37.600;2023-02-15T02:30:25;2.71;86.75
76577;DHT22;65441;44.748;37.600;2023-02-15T02:33:23;2.54;87.07
76577;DHT22;65441;44.748;37.600;2023-02-15T02:36:08;2.61;87.38
76577;DHT22;65441;44.748;37.600;2023-02-15T02:41:39;2.67;86.99
76577;DHT22;65441;44.748;37.600;2023-02-15T02:44:15;2.69;87.02
76577;DHT22;65441;44.748;37.600;2023-02-15T02:46:58;2.76;86.64
76577;DHT22;65441;44.748;37.600;2023-02-15T02:49:36;2.75;86.48
76577;DHT22;65441;44.748;37.600;2023-02-15T02:52:42;2.61;86.81
76577;DHT22;65441;44.748;37.600;2023-02-15T02:55:19;2.49;87.48
76577;DHT22;65441;44.748;37.600;2023-02-15T02:57:59;2.38;87.74
76577;DHT22;65441;44.748;37.600;2023-02-15T03:00:43;2.44;87.84
76577;DHT22;65441;44.748;37.600;2023-02-15T03:03:21;2.44;87.97
76577;DHT22;65441;44.748;37.600;2023-02-15T03:06:00;2.40;87.89
76577;DHT22;65441;44.748;37.600;2023-02-15T03:08:57;2.35;88.03
76577;DHT22;65441;44.748;37.600;2023-02-15T03:11:34;2.45;87.93
76577;DHT22;65441;44.748;37.600;2023-02-15T03:14:08;2.40;87.72
76577;DHT22;65441;44.748;37.600;2023-02-15T03:16:44;2.44;87.56
76577;DHT22;65441;44.748;37.600;2023-02-15T03:19:33;2.39;87.54
76577;DHT22;65441;44.748;37.600;2023-02-15T03:22:18;2.17;88.50
76577;DHT22;65441;44.748;37.600;2023-02-15T03:24:58;2.16;88.35
76577;DHT22;65441;44.748;37.600;2023-02-15T03:27:38;2.21;88.31
76577;DHT22;65441;44.748;37.600;2023-02-15T03:30:15;2.20;88.23
76577;DHT22;65441;44.748;37.600;2023-02-15T03:32:50;2.20;88.39
76577;DHT22;65441;44.748;37.600;2023-02-15T03:35:24;2.17;88.32
76577;DHT22;65441;44.748;37.600;2023-02-15T03:37:59;2.16;88.38
76577;DHT22;65441;44.748;37.600;2023-02-15T03:40:46;2.13;88.44
76577;DHT22;65441;44.748;37.600;2023-02-15T03:43:40;2.17;88.70
76577;DHT22;65441;44.748;37.600;2023-02-15T03:46:32;2.16;88.72
76577;DHT22;65441;44.748;37.600;2023-02-15T03:49:10;2.22;88.25
76577;DHT22;65441;44.748;37.600;2023-02-15T03:51:50;2.17;88.49
76577;DHT22;65441;44.748;37.600;2023-02-15T03:54:24;2.09;88.85
76577;DHT22;65441;44.748;37.600;2023-02-15T03:57:21;2.11;88.66
76577;DHT22;65441;44.748;37.600;2023-02-15T04:00:21;2.01;89.66
76577;DHT22;65441;44.748;37.600;2023-02-15T04:03:21;2.03;89.65
76577;DHT22;65441;44.748;37.600;2023-02-15T04:06:05;1.87;90.23
76577;DHT22;65441;44.748;37.600;2023-02-15T04:08:45;1.92;90.15
76577;DHT22;65441;44.748;37.600;2023-02-15T04:11:35;1.85;90.28
76577;DHT22;65441;44.748;37.600;2023-02-15T04:14:21;1.91;90.24
76577;DHT22;65441;44.748;37.600;2023-02-15T04:17:33;1.95;90.07
76577;DHT22;65441;44.748;37.600;2023-02-15T04:23:05;1.90;89.66
76577;DHT22;65441;44.748;37.600;2023-02-15T04:25:56;1.96;89.47
76577;DHT22;65441;44.748;37.600;2023-02-15T04:28:31;1.87;89.48
76577;DHT22;65441;44.748;37.600;2023-02-15T04:31:07;1.97;89.59
76577;DHT22;65441;44.748;37.600;2023-02-15T04:33:44;1.96;89.24
76577;DHT22;65441;44.748;37.600;2023-02-15T04:36:25;1.97;88.64
76577;DHT22;65441;44.748;37.600;2023-02-15T04:39:01;1.88;88.77
76577;DHT22;65441;44.748;37.600;2023-02-15T04:41:41;1.90;89.16
76577;DHT22;65441;44.748;37.600;2023-02-15T04:44:21;2.00;89.25
76577;DHT22;65441;44.748;37.600;2023-02-15T04:46:56;2.02;88.99
76577;DHT22;65441;44.748;37.600;2023-02-15T04:49:35;2.02;89.25
76577;DHT22;65441;44.748;37.600;2023-02-15T04:52:10;1.99;88.91
76577;DHT22;65441;44.748;37.600;2023-02-15T04:55:10;1.99;89.16
76577;DHT22;65441;44.748;37.600;2023-02-15T04:57:57;2.01;89.10
76577;DHT22;65441;44.748;37.600;2023-02-15T05:00:29;1.93;89.02
76577;DHT22;65441;44.748;37.600;2023-02-15T05:03:03;2.02;89.06
76577;DHT22;65441;44.748;37.600;2023-02-15T05:05:42;1.98;89.29
76577;DHT22;65441;44.748;37.600;2023-02-15T05:08:14;2.06;88.80
76577;DHT22;65441;44.748;37.600;2023-02-15T05:10:47;1.99;88.84
76577;DHT22;65441;44.748;37.600;2023-02-15T05:13:19;1.91;89.63
76577;DHT22;65441;44.748;37.600;2023-02-15T05:15:55;2.01;89.41
76577;DHT22;65441;44.748;37.600;2023-02-15T05:18:26;2.03;88.73
76577;DHT22;65441;44.748;37.600;2023-02-15T05:21:21;1.97;89.41
76577;DHT22;65441;44.748;37.600;2023-02-15T05:23:56;1.97;89.47
76577;DHT22;65441;44.748;37.600;2023-02-15T05:26:31;1.98;89.47
76577;DHT22;65441;44.748;37.600;2023-02-15T05:29:28;2.00;88.99
76577;DHT22;65441;44.748;37.600;2023-02-15T05:32:03;1.92;89.45
76577;DHT22;65441;44.748;37.600;2023-02-15T05:34:35;1.91;89.59
76577;DHT22;65441;44.748;37.600;2023-02-15T05:37:14;1.97;89.50
76577;DHT22;65441;44.748;37.600;2023-02-15T05:39:57;1.94;89.86
76577;DHT22;65441;44.748;37.600;2023-02-15T05:42:41;1.94;89.99
76577;DHT22;65441;44.748;37.600;2023-02-15T05:45:23;2.02;89.54
76577;DHT22;65441;44.748;37.600;2023-02-15T05:48:11;1.96;89.62
76577;DHT22;65441;44.748;37.600;2023-02-15T05:50:45;1.99;89.46
76577;DHT22;65441;44.748;37.600;2023-02-15T05:53:23;2.08;89.36
76577;DHT22;65441;44.748;37.600;2023-02-15T05:56:04;2.07;89.57
76577;DHT22;65441;44.748;37.600;2023-02-15T05:58:41;2.06;89.50
76577;DHT22;65441;44.748;37.600;2023-02-15T06:01:20;2.12;89.06
76577;DHT22;65441;44.748;37.600;2023-02-15T06:03:59;2.17;88.93
76577;DHT22;65441;44.748;37.600;2023-02-15T06:06:40;2.21;89.01
76577;DHT22;65441;44.748;37.600;2023-02-15T06:09:15;2.15;88.65
76577;DHT22;65441;44.748;37.600;2023-02-15T06:11:51;2.20;88.50
76577;DHT22;65441;44.748;37.600;2023-02-15T06:14:29;2.19;88.25
76577;DHT22;65441;44.748;37.600;2023-02-15T06:17:03;2.21;88.88
76577;DHT22;65441;44.748;37.600;2023-02-15T06:19:38;2.20;88.76
76577;DHT22;65441;44.748;37.600;2023-02-15T06:22:16;2.17;88.48
76577;DHT22;65441;44.748;37.600;2023-02-15T06:24:57;2.25;88.54
76577;DHT22;65441;44.748;37.600;2023-02-15T06:27:32;2.26;88.66
76577;DHT22;65441;44.748;37.600;2023-02-15T06:30:22;2.31;88.26
76577;DHT22;65441;44.748;37.600;2023-02-15T06:32:56;2.40;88.56
76577;DHT22;65441;44.748;37.600;2023-02-15T06:35:33;2.62;88.46
76577;DHT22;65441;44.748;37.600;2023-02-15T06:38:07;2.75;87.60
76577;DHT22;65441;44.748;37.600;2023-02-15T06:40:41;2.80;86.99
76577;DHT22;65441;44.748;37.600;2023-02-15T06:43:14;2.85;86.36
76577;DHT22;65441;44.748;37.600;2023-02-15T06:45:49;2.84;86.64
76577;DHT22;65441;44.748;37.600;2023-02-15T06:48:23;2.83;86.14
76577;DHT22;65441;44.748;37.600;2023-02-15T06:50:58;2.69;86.38
76577;DHT22;65441;44.748;37.600;2023-02-15T06:53:28;2.71;87.40
76577;DHT22;65441;44.748;37.600;2023-02-15T06:56:08;2.53;86.80
76577;DHT22;65441;44.748;37.600;2023-02-15T06:58:44;2.56;86.79
76577;DHT22;65441;44.748;37.600;2023-02-15T07:01:21;2.57;86.88
76577;DHT22;65441;44.748;37.600;2023-02-15T07:03:56;2.60;86.73
76577;DHT22;65441;44.748;37.600;2023-02-15T07:06:36;2.68;86.63
76577;DHT22;65441;44.748;37.600;2023-02-15T07:09:12;2.61;86.71
76577;DHT22;65441;44.748;37.600;2023-02-15T07:11:49;2.65;86.48
76577;DHT22;65441;44.748;37.600;2023-02-15T07:14:39;2.68;85.74
76577;DHT22;65441;44.748;37.600;2023-02-15T07:17:14;2.73;86.08
76577;DHT22;65441;44.748;37.600;2023-02-15T07:19:46;2.90;86.28
76577;DHT22;65441;44.748;37.600;2023-02-15T07:22:22;3.05;86.20
76577;DHT22;65441;44.748;37.600;2023-02-15T07:24:56;3.11;85.51
76577;DHT22;65441;44.748;37.600;2023-02-15T07:27:33;3.08;85.26
76577;DHT22;65441;44.748;37.600;2023-02-15T07:30:09;3.02;85.85
76577;DHT22;65441;44.748;37.600;2023-02-15T07:32:44;2.98;85.96
76577;DHT22;65441;44.748;37.600;2023-02-15T07:35:48;3.09;84.48
76577;DHT22;65441;44.748;37.600;2023-02-15T07:38:24;3.12;85.29
76577;DHT22;65441;44.748;37.600;2023-02-15T07:41:02;3.15;84.46
76577;DHT22;65441;44.748;37.600;2023-02-15T07:43:34;3.20;85.49
76577;DHT22;65441;44.748;37.600;2023-02-15T07:46:13;3.23;84.83
76577;DHT22;65441;44.748;37.600;2023-02-15T07:48:48;3.39;84.78
76577;DHT22;65441;44.748;37.600;2023-02-15T07:51:23;3.61;83.98
76577;DHT22;65441;44.748;37.600;2023-02-15T07:53:56;3.67;82.52
76577;DHT22;65441;44.748;37.600;2023-02-15T07:56:28;3.68;83.40
76577;DHT22;65441;44.748;37.600;2023-02-15T07:58:59;4.02;84.83
76577;DHT22;65441;44.748;37.600;2023-02-15T08:01:31;4.44;83.68
76577;DHT22;65441;44.748;37.600;2023-02-15T08:04:07;4.51;82.71
76577;DHT22;65441;44.748;37.600;2023-02-15T08:06:36;4.48;81.78
76577;DHT22;65441;44.748;37.600;2023-02-15T08:09:13;4.44;82.40
76577;DHT22;65441;44.748;37.600;2023-02-15T08:11:43;4.76;80.95
76577;DHT22;65441;44.748;37.600;2023-02-15T08:14:13;5.87;79.23
76577;DHT22;65441;44.748;37.600;2023-02-15T08:16:44;6.28;77.79
76577;DHT22;65441;44.748;37.600;2023-02-15T08:19:16;6.65;75.09
76577;DHT22;65441;44.748;37.600;2023-02-15T08:21:50;6.65;76.89
76577;DHT22;65441;44.748;37.600;2023-02-15T08:24:23;6.55;74.88
76577;DHT22;65441;44.748;37.600;2023-02-15T08:26:52;7.07;74.10
76577;DHT22;65441;44.748;37.600;2023-02-15T08:29:23;7.26;72.72
76577;DHT22;65441;44.748;37.600;2023-02-15T08:31:56;7.68;71.14
76577;DHT22;65441;44.748;37.600;2023-02-15T08:34:26;7.96;68.96
76577;DHT22;65441;44.748;37.600;2023-02-15T08:36:57;8.03;68.52
76577;DHT22;65441;44.748;37.600;2023-02-15T08:39:29;7.94;67.94
76577;DHT22;65441;44.748;37.600;2023-02-15T08:42:00;8.21;68.10
76577;DHT22;65441;44.748;37.600;2023-02-15T08:44:29;8.29;65.14
76577;DHT22;65441;44.748;37.600;2023-02-15T08:46:58;8.20;64.89
76577;DHT22;65441;44.748;37.600;2023-02-15T08:49:30;7.73;66.07
76577;DHT22;65441;44.748;37.600;2023-02-15T08:52:01;7.60;68.58
76577;DHT22;65441;44.748;37.600;2023-02-15T08:54:33;7.59;69.62
76577;DHT22;65441;44.748;37.600;2023-02-15T08:57:01;7.31;68.18
76577;DHT22;65441;44.748;37.600;2023-02-15T08:59:33;6.98;68.87
76577;DHT22;65441;44.748;37.600;2023-02-15T09:02:02;6.69;69.46
76577;DHT22;65441;44.748;37.600;2023-02-15T09:04:33;6.34;68.28
76577;DHT22;65441;44.748;37.600;2023-02-15T09:07:02;5.92;71.02
76577;DHT22;65441;44.748;37.600;2023-02-15T09:09:35;5.53;71.34
76577;DHT22;65441;44.748;37.600;2023-02-15T09:12:09;5.50;72.91
76577;DHT22;65441;44.748;37.600;2023-02-15T09:14:39;5.75;73.48
76577;DHT22;65441;44.748;37.600;2023-02-15T09:17:09;5.49;71.88
76577;DHT22;65441;44.748;37.600;2023-02-15T09:19:37;5.56;72.81
76577;DHT22;65441;44.748;37.600;2023-02-15T09:22:09;5.83;70.64
76577;DHT22;65441;44.748;37.600;2023-02-15T09:24:43;6.22;71.19
76577;DHT22;65441;44.748;37.600;2023-02-15T09:27:15;6.63;69.94
76577;DHT22;65441;44.748;37.600;2023-02-15T09:29:45;6.42;67.36
76577;DHT22;65441;44.748;37.600;2023-02-15T09:32:15;6.08;69.23
76577;DHT22;65441;44.748;37.600;2023-02-15T09:34:46;6.24;70.37
76577;DHT22;65441;44.748;37.600;2023-02-15T09:37:15;5.69;67.75
76577;DHT22;65441;44.748;37.600;2023-02-15T09:39:49;6.07;69.17
76577;DHT22;65441;44.748;37.600;2023-02-15T09:42:49;6.36;66.31
76577;DHT22;65441;44.748;37.600;2023-02-15T09:45:36;6.59;66.62
76577;DHT22;65441;44.748;37.600;2023-02-15T09:48:19;7.27;64.44
76577;DHT22;65441;44.748;37.600;2023-02-15T09:50:59;7.79;61.21
76577;DHT22;65441;44.748;37.600;2023-02-15T09:53:49;7.87;63.62
76577;DHT22;65441;44.748;37.600;2023-02-15T09:56:25;7.54;63.76
76577;DHT22;65441;44.748;37.600;2023-02-15T09:59:01;7.50;63.82
76577;DHT22;65441;44.748;37.600;2023-02-15T10:01:42;8.09;63.56
76577;DHT22;65441;44.748;37.600;2023-02-15T10:04:27;7.79;60.33
76577;DHT22;65441;44.748;37.600;2023-02-15T10:07:09;7.75;61.96
76577;DHT22;65441;44.748;37.600;2023-02-15T10:09:50;7.65;61.58
76577;DHT22;65441;44.748;37.600;2023-02-15T10:12:53;7.53;61.63
76577;DHT22;65441;44.748;37.600;2023-02-15T10:15:43;7.41;60.27
76577;DHT22;65441;44.748;37.600;2023-02-15T10:18:30;7.86;61.68
76577;DHT22;65441;44.748;37.600;2023-02-15T10:21:09;8.01;62.33
76577;DHT22;65441;44.748;37.600;2023-02-15T10:24:02;7.87;60.52
76577;DHT22;65441;44.748;37.600;2023-02-15T10:26:37;7.33;59.27
76577;DHT22;65441;44.748;37.600;2023-02-15T10:29:21;6.93;60.00
76577;DHT22;65441;44.748;37.600;2023-02-15T10:32:01;6.70;59.87
76577;DHT22;65441;44.748;37.600;2023-02-15T10:34:42;6.55;60.97
76577;DHT22;65441;44.748;37.600;2023-02-15T10:37:39;6.34;64.08
76577;DHT22;65441;44.748;37.600;2023-02-15T10:40:22;6.37;65.23
76577;DHT22;65441;44.748;37.600;2023-02-15T10:43:15;6.30;62.31
76577;DHT22;65441;44.748;37.600;2023-02-15T10:45:59;7.16;62.20
76577;DHT22;65441;44.748;37.600;2023-02-15T10:49:05;7.35;59.30
76577;DHT22;65441;44.748;37.600;2023-02-15T10:51:45;7.07;59.86
76577;DHT22;65441;44.748;37.600;2023-02-15T10:54:30;7.20;61.66
76577;DHT22;65441;44.748;37.600;2023-02-15T10:57:05;7.28;61.96
76577;DHT22;65441;44.748;37.600;2023-02-15T10:59:50;6.83;61.44
76577;DHT22;65441;44.748;37.600;2023-02-15T11:02:30;6.50;61.89
76577;DHT22;65441;44.748;37.600;2023-02-15T11:05:20;6.45;63.89
76577;DHT22;65441;44.748;37.600;2023-02-15T11:07:55;6.19;64.12
76577;DHT22;65441;44.748;37.600;2023-02-15T11:10:30;6.02;63.96
76577;DHT22;65441;44.748;37.600;2023-02-15T11:13:04;5.80;65.73
76577;DHT22;65441;44.748;37.600;2023-02-15T11:15:40;5.46;67.23
76577;DHT22;65441;44.748;37.600;2023-02-15T11:18:14;5.11;67.91
76577;DHT22;65441;44.748;37.600;2023-02-15T11:20:53;5.21;68.37
76577;DHT22;65441;44.748;37.600;2023-02-15T11:23:29;5.19;67.89
76577;DHT22;65441;44.748;37.600;2023-02-15T11:26:03;5.17;69.73
76577;DHT22;65441;44.748;37.600;2023-02-15T11:28:37;5.16;69.49
76577;DHT22;65441;44.748;37.600;2023-02-15T11:31:17;5.11;69.16
76577;DHT22;65441;44.748;37.600;2023-02-15T11:33:56;5.23;68.91
76577;DHT22;65441;44.748;37.600;2023-02-15T11:36:31;5.01;69.16
76577;DHT22;65441;44.748;37.600;2023-02-15T11:39:03;5.18;69.58
76577;DHT22;65441;44.748;37.600;2023-02-15T11:41:39;5.38;69.02
76577;DHT22;65441;44.748;37.600;2023-02-15T11:44:15;5.03;68.12
76577;DHT22;65441;44.748;37.600;2023-02-15T11:46:46;4.80;69.73
76577;DHT22;65441;44.748;37.600;2023-02-15T11:49:31;4.67;70.13
76577;DHT22;65441;44.748;37.600;2023-02-15T11:52:06;4.64;70.26
76577;DHT22;65441;44.748;37.600;2023-02-15T11:54:42;4.88;69.53
76577;DHT22;65441;44.748;37.600;2023-02-15T11:57:17;4.63;69.43
76577;DHT22;65441;44.748;37.600;2023-02-15T12:00:00;4.52;70.08
76577;DHT22;65441;44.748;37.600;2023-02-15T12:02:36;4.51;71.03
76577;DHT22;65441;44.748;37.600;2023-02-15T12:05:14;4.31;70.95
76577;DHT22;65441;44.748;37.600;2023-02-15T12:07:46;4.44;71.67
76577;DHT22;65441;44.748;37.600;2023-02-15T12:10:25;4.56;70.20
76577;DHT22;65441;44.748;37.600;2023-02-15T12:13:10;4.47;70.86
76577;DHT22;65441;44.748;37.600;2023-02-15T12:15:43;4.38;71.30
76577;DHT22;65441;44.748;37.600;2023-02-15T12:18:24;4.27;69.91
76577;DHT22;65441;44.748;37.600;2023-02-15T12:21:01;4.20;71.17
76577;DHT22;65441;44.748;37.600;2023-02-15T12:23:32;4.17;70.75
76577;DHT22;65441;44.748;37.600;2023-02-15T12:26:06;4.06;72.61
76577;DHT22;65441;44.748;37.600;2023-02-15T12:28:43;4.06;72.06
76577;DHT22;65441;44.748;37.600;2023-02-15T12:31:20;3.94;72.45
76577;DHT22;65441;44.748;37.600;2023-02-15T12:33:55;3.88;73.12
76577;DHT22;65441;44.748;37.600;2023-02-15T12:36:31;3.93;72.72
76577;DHT22;65441;44.748;37.600;2023-02-15T12:39:19;4.12;73.09
76577;DHT22;65441;44.748;37.600;2023-02-15T12:42:01;4.06;73.51
76577;DHT22;65441;44.748;37.600;2023-02-15T12:44:35;4.05;73.59
76577;DHT22;65441;44.748;37.600;2023-02-15T12:47:16;3.79;73.90
76577;DHT22;65441;44.748;37.600;2023-02-15T12:50:06;4.00;73.84
76577;DHT22;65441;44.748;37.600;2023-02-15T12:52:40;3.97;73.74
76577;DHT22;65441;44.748;37.600;2023-02-15T12:55:19;3.75;73.77
76577;DHT22;65441;44.748;37.600;2023-02-15T12:57:57;3.75;73.86
76577;DHT22;65441;44.748;37.600;2023-02-15T13:00:35;3.53;74.47
76577;DHT22;65441;44.748;37.600;2023-02-15T13:03:18;3.73;74.58
76577;DHT22;65441;44.748;37.600;2023-02-15T13:05:51;3.63;74.34
76577;DHT22;65441;44.748;37.600;2023-02-15T13:08:31;3.73;73.37
76577;DHT22;65441;44.748;37.600;2023-02-15T13:11:04;3.79;73.99
76577;DHT22;65441;44.748;37.600;2023-02-15T13:13:47;3.82;73.99
76577;DHT22;65441;44.748;37.600;2023-02-15T13:16:27;3.65;74.52
76577;DHT22;65441;44.748;37.600;2023-02-15T13:19:03;3.67;75.01
76577;DHT22;65441;44.748;37.600;2023-02-15T13:21:37;3.58;74.81
76577;DHT22;65441;44.748;37.600;2023-02-15T13:24:20;3.58;75.71
76577;DHT22;65441;44.748;37.600;2023-02-15T13:26:50;3.63;73.33
76577;DHT22;65441;44.748;37.600;2023-02-15T13:29:27;3.45;75.63
76577;DHT22;65441;44.748;37.600;2023-02-15T13:32:00;3.31;74.74
76577;DHT22;65441;44.748;37.600;2023-02-15T13:34:39;3.34;75.24
76577;DHT22;65441;44.748;37.600;2023-02-15T13:37:16;3.30;75.15
76577;DHT22;65441;44.748;37.600;2023-02-15T13:39:55;3.35;75.88
76577;DHT22;65441;44.748;37.600;2023-02-15T13:42:34;3.32;76.05
76577;DHT22;65441;44.748;37.600;2023-02-15T13:45:21;3.29;76.59
76577;DHT22;65441;44.748;37.600;2023-02-15T13:48:03;3.27;76.80
76577;DHT22;65441;44.748;37.600;2023-02-15T13:50:52;3.28;76.18
76577;DHT22;65441;44.748;37.600;2023-02-15T13:53:35;3.28;76.08
76577;DHT22;65441;44.748;37.600;2023-02-15T13:56:20;3.26;76.08
76577;DHT22;65441;44.748;37.600;2023-02-15T13:59:24;3.31;76.02
76577;DHT22;65441;44.748;37.600;2023-02-15T14:02:11;3.20;76.33
76577;DHT22;65441;44.748;37.600;2023-02-15T14:05:00;3.30;76.57
76577;DHT22;65441;44.748;37.600;2023-02-15T14:07:56;3.29;76.13
76577;DHT22;65441;44.748;37.600;2023-02-15T14:10:34;3.23;77.27
76577;DHT22;65441;44.748;37.600;2023-02-15T14:16:12;3.09;76.77
76577;DHT22;65441;44.748;37.600;2023-02-15T14:18:48;3.18;76.57
76577;DHT22;65441;44.748;37.600;2023-02-15T14:21:25;3.01;77.27
76577;DHT22;65441;44.748;37.600;2023-02-15T14:24:06;2.93;77.85
76577;DHT22;65441;44.748;37.600;2023-02-15T14:26:44;2.82;78.91
76577;DHT22;65441;44.748;37.600;2023-02-15T14:29:24;2.74;78.97
76577;DHT22;65441;44.748;37.600;2023-02-15T14:32:04;2.69;79.17
76577;DHT22;65441;44.748;37.600;2023-02-15T14:34:45;2.59;79.36
76577;DHT22;65441;44.748;37.600;2023-02-15T14:37:21;2.67;79.90
76577;DHT22;65441;44.748;37.600;2023-02-15T14:40:05;2.73;79.52
76577;DHT22;65441;44.748;37.600;2023-02-15T14:42:56;2.75;79.23
76577;DHT22;65441;44.748;37.600;2023-02-15T14:45:31;2.71;79.31
76577;DHT22;65441;44.748;37.600;2023-02-15T14:48:15;2.64;79.88
76577;DHT22;65441;44.748;37.600;2023-02-15T14:50:47;2.61;79.77
76577;DHT22;65441;44.748;37.600;2023-02-15T14:56:23;2.64;80.24
76577;DHT22;65441;44.748;37.600;2023-02-15T14:59:02;2.60;79.71
76577;DHT22;65441;44.748;37.600;2023-02-15T15:01:53;2.51;79.92
76577;DHT22;65441;44.748;37.600;2023-02-15T15:04:31;2.62;79.59
76577;DHT22;65441;44.748;37.600;2023-02-15T15:07:19;2.71;79.28
76577;DHT22;65441;44.748;37.600;2023-02-15T15:10:03;2.72;79.25
76577;DHT22;65441;44.748;37.600;2023-02-15T15:12:47;2.67;79.03
76577;DHT22;65441;44.748;37.600;2023-02-15T15:15:46;2.68;79.23
76577;DHT22;65441;44.748;37.600;2023-02-15T15:18:45;2.62;79.49
76577;DHT22;65441;44.748;37.600;2023-02-15T15:24:50;2.50;79.67
76577;DHT22;65441;44.748;37.600;2023-02-15T15:28:05;2.42;79.59
76577;DHT22;65441;44.748;37.600;2023-02-15T15:31:15;2.41;79.98
76577;DHT22;65441;44.748;37.600;2023-02-15T15:37:28;2.37;79.84
76577;DHT22;65441;44.748;37.600;2023-02-15T15:40:32;2.32;80.10
76577;DHT22;65441;44.748;37.600;2023-02-15T15:46:28;2.29;79.85
76577;DHT22;65441;44.748;37.600;2023-02-15T15:49:12;2.24;80.52
76577;DHT22;65441;44.748;37.600;2023-02-15T15:51:57;2.34;80.14
76577;DHT22;65441;44.748;37.600;2023-02-15T15:54:34;2.22;80.75
76577;DHT22;65441;44.748;37.600;2023-02-15T15:57:17;2.24;80.04
76577;DHT22;65441;44.748;37.600;2023-02-15T15:59:49;2.26;80.16
76577;DHT22;65441;44.748;37.600;2023-02-15T16:02:21;2.13;80.39
76577;DHT22;65441;44.748;37.600;2023-02-15T16:05:06;2.09;80.66
76577;DHT22;65441;44.748;37.600;2023-02-15T16:07:54;2.20;80.96
76577;DHT22;65441;44.748;37.600;2023-02-15T16:10:29;2.08;81.10
76577;DHT22;65441;44.748;37.600;2023-02-15T16:13:05;2.20;80.94
76577;DHT22;65441;44.748;37.600;2023-02-15T16:15:49;2.07;81.18
76577;DHT22;65441;44.748;37.600;2023-02-15T16:18:30;2.13;81.22
76577;DHT22;65441;44.748;37.600;2023-02-15T16:21:12;2.14;80.91
76577;DHT22;65441;44.748;37.600;2023-02-15T16:24:14;2.16;81.07
76577;DHT22;65441;44.748;37.600;2023-02-15T16:27:16;2.19;81.17
76577;DHT22;65441;44.748;37.600;2023-02-15T16:30:08;2.16;80.85
76577;DHT22;65441;44.748;37.600;2023-02-15T16:32:48;2.22;80.64
76577;DHT22;65441;44.748;37.600;2023-02-15T16:35:24;2.25;80.19
76577;DHT22;65441;44.748;37.600;2023-02-15T16:38:08;2.08;81.43
76577;DHT22;65441;44.748;37.600;2023-02-15T16:40:54;1.99;81.86
76577;DHT22;65441;44.748;37.600;2023-02-15T16:43:32;2.06;81.80
76577;DHT22;65441;44.748;37.600;2023-02-15T16:46:08;2.05;81.59
76577;DHT22;65441;44.748;37.600;2023-02-15T16:48:43;2.02;82.23
76577;DHT22;65441;44.748;37.600;2023-02-15T16:51:21;2.01;81.46
76577;DHT22;65441;44.748;37.600;2023-02-15T16:53:56;2.00;81.69
76577;DHT22;65441;44.748;37.600;2023-02-15T16:56:30;2.05;81.52
76577;DHT22;65441;44.748;37.600;2023-02-15T16:59:30;2.13;80.94
76577;DHT22;65441;44.748;37.600;2023-02-15T17:02:06;2.11;80.25
76577;DHT22;65441;44.748;37.600;2023-02-15T17:05:06;2.13;80.15
76577;DHT22;65441;44.748;37.600;2023-02-15T17:07:49;2.08;80.02
76577;DHT22;65441;44.748;37.600;2023-02-15T17:10:31;1.93;81.32